sensor_id;sensor_type;location;lat;lon;timestamp;P1;durP1;ratioP1;P2;durP2;ratioP2
18510;SDS011;9384;48.044;11.616;2022-11-02T00:00:19;3.90;;;3.20;;
18510;SDS011;9384;48.044;11.616;2022-11-02T00:02:46;4.00;;;2.93;;
18510;SDS011;9384;48.044;11.616;2022-11-02T00:05:14;4.03;;;3.33;;
18510;SDS011;9384;48.044;11.616;2022-11-02T00:07:47;3.97;;;3.10;;
18510;SDS011;9384;48.044;11.616;2022-11-02T00:10:15;3.83;;;3.20;;
18510;SDS011;9384;48.044;11.616;2022-11-02T00:12:42;4.43;;;2.90;;
18510;SDS011;9384;48.044;11.616;2022-11-02T00:15:09;3.60;;;3.30;;
18510;SDS011;9384;48.044;11.616;2022-11-02T00:17:36;6.00;;;3.23;;
18510;SDS011;9384;48.044;11.616;2022-11-02T00:20:05;4.27;;;3.03;;
18510;SDS011;9384;48.044;11.616;2022-11-02T00:22:35;5.33;;;3.10;;
18510;SDS011;9384;48.044;11.616;2022-11-02T00:25:02;3.10;;;2.80;;
18510;SDS011;9384;48.044;11.616;2022-11-02T00:27:31;4.10;;;2.80;;
18510;SDS011;9384;48.044;11.616;2022-11-02T00:29:59;4.90;;;3.07;;
18510;SDS011;9384;48.044;11.616;2022-11-02T00:32:26;7.73;;;3.17;;
18510;SDS011;9384;48.044;11.616;2022-11-02T00:34:53;4.30;;;2.87;;
18510;SDS011;9384;48.044;11.616;2022-11-02T00:37:20;4.70;;;3.57;;
18510;SDS011;9384;48.044;11.616;2022-11-02T00:39:48;4.03;;;2.80;;
18510;SDS011;9384;48.044;11.616;2022-11-02T00:42:15;6.93;;;3.17;;
18510;SDS011;9384;48.044;11.616;2022-11-02T00:44:42;4.37;;;2.67;;
18510;SDS011;9384;48.044;11.616;2022-11-02T00:47:08;4.27;;;3.03;;
18510;SDS011;9384;48.044;11.616;2022-11-02T00:49:36;5.60;;;2.90;;
18510;SDS011;9384;48.044;11.616;2022-11-02T00:52:03;6.37;;;3.43;;
18510;SDS011;9384;48.044;11.616;2022-11-02T00:54:30;4.73;;;2.80;;
18510;SDS011;9384;48.044;11.616;2022-11-02T00:56:58;5.27;;;3.13;;
18510;SDS011;9384;48.044;11.616;2022-11-02T00:59:25;3.53;;;3.10;;
18510;SDS011;9384;48.044;11.616;2022-11-02T01:01:52;4.97;;;3.10;;
18510;SDS011;9384;48.044;11.616;2022-11-02T01:04:19;3.97;;;3.13;;
18510;SDS011;9384;48.044;11.616;2022-11-02T01:06:46;5.83;;;2.90;;
18510;SDS011;9384;48.044;11.616;2022-11-02T01:09:13;2.77;;;2.50;;
18510;SDS011;9384;48.044;11.616;2022-11-02T01:11:41;5.73;;;2.97;;
18510;SDS011;9384;48.044;11.616;2022-11-02T01:14:09;6.17;;;2.90;;
18510;SDS011;9384;48.044;11.616;2022-11-02T01:16:37;3.30;;;3.00;;
18510;SDS011;9384;48.044;11.616;2022-11-02T01:19:05;2.80;;;2.60;;
18510;SDS011;9384;48.044;11.616;2022-11-02T01:21:32;3.87;;;2.50;;
18510;SDS011;9384;48.044;11.616;2022-11-02T01:23:59;4.43;;;2.50;;
18510;SDS011;9384;48.044;11.616;2022-11-02T01:26:26;3.40;;;2.50;;
18510;SDS011;9384;48.044;11.616;2022-11-02T01:28:52;2.63;;;2.43;;
18510;SDS011;9384;48.044;11.616;2022-11-02T01:31:21;3.10;;;2.90;;
18510;SDS011;9384;48.044;11.616;2022-11-02T01:33:48;4.90;;;2.60;;
18510;SDS011;9384;48.044;11.616;2022-11-02T01:36:15;4.13;;;2.60;;
18510;SDS011;9384;48.044;11.616;2022-11-02T01:38:45;4.43;;;2.60;;
18510;SDS011;9384;48.044;11.616;2022-11-02T01:41:12;2.87;;;2.70;;
18510;SDS011;9384;48.044;11.616;2022-11-02T01:43:40;3.03;;;2.70;;
18510;SDS011;9384;48.044;11.616;2022-11-02T01:46:11;5.73;;;2.80;;
18510;SDS011;9384;48.044;11.616;2022-11-02T01:48:44;5.07;;;2.50;;
18510;SDS011;9384;48.044;11.616;2022-11-02T01:51:14;4.37;;;2.60;;
18510;SDS011;9384;48.044;11.616;2022-11-02T01:53:47;6.47;;;2.50;;
18510;SDS011;9384;48.044;11.616;2022-11-02T01:56:16;2.70;;;2.50;;
18510;SDS011;9384;48.044;11.616;2022-11-02T01:58:46;3.30;;;2.63;;
18510;SDS011;9384;48.044;11.616;2022-11-02T02:01:16;8.23;;;2.60;;
18510;SDS011;9384;48.044;11.616;2022-11-02T02:03:44;3.13;;;2.40;;
18510;SDS011;9384;48.044;11.616;2022-11-02T02:06:13;3.73;;;2.50;;
18510;SDS011;9384;48.044;11.616;2022-11-02T02:08:43;2.93;;;2.73;;
18510;SDS011;9384;48.044;11.616;2022-11-02T02:11:23;4.03;;;2.40;;
18510;SDS011;9384;48.044;11.616;2022-11-02T02:13:52;4.80;;;2.50;;
18510;SDS011;9384;48.044;11.616;2022-11-02T02:16:21;3.70;;;2.73;;
18510;SDS011;9384;48.044;11.616;2022-11-02T02:18:56;3.17;;;2.40;;
18510;SDS011;9384;48.044;11.616;2022-11-02T02:21:28;2.83;;;2.70;;
18510;SDS011;9384;48.044;11.616;2022-11-02T02:24:07;4.73;;;2.43;;
18510;SDS011;9384;48.044;11.616;2022-11-02T02:27:01;2.50;;;2.30;;
18510;SDS011;9384;48.044;11.616;2022-11-02T02:29:38;3.97;;;2.60;;
18510;SDS011;9384;48.044;11.616;2022-11-02T02:32:15;2.60;;;2.30;;
18510;SDS011;9384;48.044;11.616;2022-11-02T02:34:50;4.77;;;2.57;;
18510;SDS011;9384;48.044;11.616;2022-11-02T02:37:20;6.63;;;2.40;;
18510;SDS011;9384;48.044;11.616;2022-11-02T02:39:54;4.63;;;2.57;;
18510;SDS011;9384;48.044;11.616;2022-11-02T02:42:29;2.63;;;2.43;;
18510;SDS011;9384;48.044;11.616;2022-11-02T02:45:03;6.27;;;2.60;;
18510;SDS011;9384;48.044;11.616;2022-11-02T02:47:35;2.90;;;2.70;;
18510;SDS011;9384;48.044;11.616;2022-11-02T02:50:06;4.57;;;2.73;;
18510;SDS011;9384;48.044;11.616;2022-11-02T02:52:39;5.43;;;2.83;;
18510;SDS011;9384;48.044;11.616;2022-11-02T02:55:09;4.80;;;3.03;;
18510;SDS011;9384;48.044;11.616;2022-11-02T02:57:41;3.23;;;2.60;;
18510;SDS011;9384;48.044;11.616;2022-11-02T03:00:12;4.33;;;2.60;;
18510;SDS011;9384;48.044;11.616;2022-11-02T03:02:41;4.60;;;3.00;;
18510;SDS011;9384;48.044;11.616;2022-11-02T03:05:25;6.83;;;3.17;;
18510;SDS011;9384;48.044;11.616;2022-11-02T03:07:54;3.13;;;2.93;;
18510;SDS011;9384;48.044;11.616;2022-11-02T03:10:27;3.73;;;3.10;;
18510;SDS011;9384;48.044;11.616;2022-11-02T03:13:02;3.13;;;2.77;;
18510;SDS011;9384;48.044;11.616;2022-11-02T03:15:38;3.10;;;2.90;;
18510;SDS011;9384;48.044;11.616;2022-11-02T03:18:11;6.07;;;3.60;;
18510;SDS011;9384;48.044;11.616;2022-11-02T03:20:46;3.00;;;2.70;;
18510;SDS011;9384;48.044;11.616;2022-11-02T03:23:27;4.97;;;3.43;;
18510;SDS011;9384;48.044;11.616;2022-11-02T03:25:59;7.13;;;2.70;;
18510;SDS011;9384;48.044;11.616;2022-11-02T03:28:39;12.63;;;3.97;;
18510;SDS011;9384;48.044;11.616;2022-11-02T03:31:17;3.93;;;2.93;;
18510;SDS011;9384;48.044;11.616;2022-11-02T03:33:53;5.47;;;3.30;;
18510;SDS011;9384;48.044;11.616;2022-11-02T03:36:24;8.33;;;3.43;;
18510;SDS011;9384;48.044;11.616;2022-11-02T03:38:58;7.23;;;3.73;;
18510;SDS011;9384;48.044;11.616;2022-11-02T03:41:29;4.60;;;3.37;;
18510;SDS011;9384;48.044;11.616;2022-11-02T03:43:58;4.40;;;3.40;;
18510;SDS011;9384;48.044;11.616;2022-11-02T03:46:32;6.90;;;3.77;;
18510;SDS011;9384;48.044;11.616;2022-11-02T03:49:01;8.67;;;3.50;;
18510;SDS011;9384;48.044;11.616;2022-11-02T03:51:31;3.30;;;3.10;;
18510;SDS011;9384;48.044;11.616;2022-11-02T03:54:04;7.90;;;3.43;;
18510;SDS011;9384;48.044;11.616;2022-11-02T03:56:36;4.33;;;2.87;;
18510;SDS011;9384;48.044;11.616;2022-11-02T03:59:06;6.50;;;2.90;;
18510;SDS011;9384;48.044;11.616;2022-11-02T04:01:37;7.20;;;3.37;;
18510;SDS011;9384;48.044;11.616;2022-11-02T04:04:05;6.07;;;3.10;;
18510;SDS011;9384;48.044;11.616;2022-11-02T04:06:32;3.73;;;2.77;;
18510;SDS011;9384;48.044;11.616;2022-11-02T04:09:00;5.33;;;3.70;;
18510;SDS011;9384;48.044;11.616;2022-11-02T04:11:27;5.07;;;3.33;;
18510;SDS011;9384;48.044;11.616;2022-11-02T04:14:13;6.03;;;3.37;;
18510;SDS011;9384;48.044;11.616;2022-11-02T04:16:58;5.17;;;3.20;;
18510;SDS011;9384;48.044;11.616;2022-11-02T04:19:39;8.87;;;3.77;;
18510;SDS011;9384;48.044;11.616;2022-11-02T04:22:06;7.67;;;3.33;;
18510;SDS011;9384;48.044;11.616;2022-11-02T04:24:50;7.33;;;4.10;;
18510;SDS011;9384;48.044;11.616;2022-11-02T04:27:34;3.67;;;3.47;;
18510;SDS011;9384;48.044;11.616;2022-11-02T04:30:01;7.90;;;3.90;;
18510;SDS011;9384;48.044;11.616;2022-11-02T04:32:37;6.90;;;3.40;;
18510;SDS011;9384;48.044;11.616;2022-11-02T04:35:21;5.60;;;3.53;;
18510;SDS011;9384;48.044;11.616;2022-11-02T04:37:48;6.37;;;3.97;;
18510;SDS011;9384;48.044;11.616;2022-11-02T04:40:32;5.00;;;3.63;;
18510;SDS011;9384;48.044;11.616;2022-11-02T04:42:59;8.20;;;3.47;;
18510;SDS011;9384;48.044;11.616;2022-11-02T04:45:26;8.97;;;3.50;;
18510;SDS011;9384;48.044;11.616;2022-11-02T04:47:56;4.53;;;3.63;;
18510;SDS011;9384;48.044;11.616;2022-11-02T04:50:26;5.47;;;3.43;;
18510;SDS011;9384;48.044;11.616;2022-11-02T04:52:54;4.97;;;3.37;;
18510;SDS011;9384;48.044;11.616;2022-11-02T04:55:21;3.80;;;3.23;;
18510;SDS011;9384;48.044;11.616;2022-11-02T04:57:48;10.77;;;4.10;;
18510;SDS011;9384;48.044;11.616;2022-11-02T05:00:15;5.00;;;3.53;;
18510;SDS011;9384;48.044;11.616;2022-11-02T05:02:44;10.93;;;3.63;;
18510;SDS011;9384;48.044;11.616;2022-11-02T05:05:13;4.40;;;3.10;;
18510;SDS011;9384;48.044;11.616;2022-11-02T05:07:41;9.67;;;3.53;;
18510;SDS011;9384;48.044;11.616;2022-11-02T05:10:08;4.13;;;3.33;;
18510;SDS011;9384;48.044;11.616;2022-11-02T05:12:35;4.17;;;3.50;;
18510;SDS011;9384;48.044;11.616;2022-11-02T05:15:02;8.97;;;3.27;;
18510;SDS011;9384;48.044;11.616;2022-11-02T05:17:30;4.27;;;3.40;;
18510;SDS011;9384;48.044;11.616;2022-11-02T05:19:57;4.80;;;3.50;;
18510;SDS011;9384;48.044;11.616;2022-11-02T05:22:25;3.50;;;2.97;;
18510;SDS011;9384;48.044;11.616;2022-11-02T05:24:52;6.63;;;3.60;;
18510;SDS011;9384;48.044;11.616;2022-11-02T05:27:18;3.93;;;3.40;;
18510;SDS011;9384;48.044;11.616;2022-11-02T05:29:45;9.53;;;3.17;;
18510;SDS011;9384;48.044;11.616;2022-11-02T05:32:12;5.63;;;3.17;;
18510;SDS011;9384;48.044;11.616;2022-11-02T05:34:39;4.33;;;2.90;;
18510;SDS011;9384;48.044;11.616;2022-11-02T05:37:05;5.23;;;3.20;;
18510;SDS011;9384;48.044;11.616;2022-11-02T05:39:34;8.37;;;4.00;;
18510;SDS011;9384;48.044;11.616;2022-11-02T05:42:01;7.47;;;3.30;;
18510;SDS011;9384;48.044;11.616;2022-11-02T05:44:28;4.30;;;3.23;;
18510;SDS011;9384;48.044;11.616;2022-11-02T05:46:55;9.97;;;3.40;;
18510;SDS011;9384;48.044;11.616;2022-11-02T05:49:21;8.90;;;3.60;;
18510;SDS011;9384;48.044;11.616;2022-11-02T05:51:48;4.30;;;3.07;;
18510;SDS011;9384;48.044;11.616;2022-11-02T05:54:16;6.10;;;3.53;;
18510;SDS011;9384;48.044;11.616;2022-11-02T05:56:44;4.67;;;3.57;;
18510;SDS011;9384;48.044;11.616;2022-11-02T05:59:11;9.43;;;5.23;;
18510;SDS011;9384;48.044;11.616;2022-11-02T06:01:38;6.13;;;3.70;;
18510;SDS011;9384;48.044;11.616;2022-11-02T06:04:05;6.57;;;3.83;;
18510;SDS011;9384;48.044;11.616;2022-11-02T06:06:31;10.57;;;4.20;;
18510;SDS011;9384;48.044;11.616;2022-11-02T06:08:58;6.13;;;4.17;;
18510;SDS011;9384;48.044;11.616;2022-11-02T06:11:25;5.10;;;3.77;;
18510;SDS011;9384;48.044;11.616;2022-11-02T06:13:54;3.33;;;3.00;;
18510;SDS011;9384;48.044;11.616;2022-11-02T06:16:21;4.10;;;3.30;;
18510;SDS011;9384;48.044;11.616;2022-11-02T06:18:47;3.40;;;3.10;;
18510;SDS011;9384;48.044;11.616;2022-11-02T06:21:14;6.07;;;3.50;;
18510;SDS011;9384;48.044;11.616;2022-11-02T06:23:41;7.07;;;3.33;;
18510;SDS011;9384;48.044;11.616;2022-11-02T06:26:08;6.47;;;3.03;;
18510;SDS011;9384;48.044;11.616;2022-11-02T06:28:36;8.30;;;4.10;;
18510;SDS011;9384;48.044;11.616;2022-11-02T06:31:05;7.67;;;3.53;;
18510;SDS011;9384;48.044;11.616;2022-11-02T06:33:32;5.67;;;3.07;;
18510;SDS011;9384;48.044;11.616;2022-11-02T06:35:58;6.47;;;3.57;;
18510;SDS011;9384;48.044;11.616;2022-11-02T06:38:25;10.87;;;3.20;;
18510;SDS011;9384;48.044;11.616;2022-11-02T06:40:53;3.10;;;2.90;;
18510;SDS011;9384;48.044;11.616;2022-11-02T06:43:20;5.70;;;3.60;;
18510;SDS011;9384;48.044;11.616;2022-11-02T06:45:47;3.93;;;3.53;;
18510;SDS011;9384;48.044;11.616;2022-11-02T06:48:15;5.90;;;3.63;;
18510;SDS011;9384;48.044;11.616;2022-11-02T06:50:42;8.20;;;3.47;;
18510;SDS011;9384;48.044;11.616;2022-11-02T06:53:09;7.63;;;3.23;;
18510;SDS011;9384;48.044;11.616;2022-11-02T06:55:36;6.83;;;3.40;;
18510;SDS011;9384;48.044;11.616;2022-11-02T06:58:03;9.87;;;3.53;;
18510;SDS011;9384;48.044;11.616;2022-11-02T07:00:29;5.80;;;3.47;;
18510;SDS011;9384;48.044;11.616;2022-11-02T07:03:00;4.03;;;3.40;;
18510;SDS011;9384;48.044;11.616;2022-11-02T07:05:30;7.60;;;3.23;;
18510;SDS011;9384;48.044;11.616;2022-11-02T07:07:57;5.90;;;3.27;;
18510;SDS011;9384;48.044;11.616;2022-11-02T07:10:24;7.80;;;3.30;;
18510;SDS011;9384;48.044;11.616;2022-11-02T07:12:52;9.13;;;4.07;;
18510;SDS011;9384;48.044;11.616;2022-11-02T07:15:19;10.43;;;3.60;;
18510;SDS011;9384;48.044;11.616;2022-11-02T07:17:46;6.93;;;3.80;;
18510;SDS011;9384;48.044;11.616;2022-11-02T07:20:14;7.07;;;3.43;;
18510;SDS011;9384;48.044;11.616;2022-11-02T07:22:50;7.03;;;2.70;;
18510;SDS011;9384;48.044;11.616;2022-11-02T07:25:17;6.40;;;3.70;;
18510;SDS011;9384;48.044;11.616;2022-11-02T07:27:44;5.90;;;3.83;;
18510;SDS011;9384;48.044;11.616;2022-11-02T07:30:11;6.07;;;3.37;;
18510;SDS011;9384;48.044;11.616;2022-11-02T07:32:38;7.67;;;3.83;;
18510;SDS011;9384;48.044;11.616;2022-11-02T07:35:06;7.30;;;3.80;;
18510;SDS011;9384;48.044;11.616;2022-11-02T07:37:34;7.00;;;3.70;;
18510;SDS011;9384;48.044;11.616;2022-11-02T07:40:03;4.67;;;3.80;;
18510;SDS011;9384;48.044;11.616;2022-11-02T07:42:31;4.97;;;3.30;;
18510;SDS011;9384;48.044;11.616;2022-11-02T07:44:58;5.77;;;3.03;;
18510;SDS011;9384;48.044;11.616;2022-11-02T07:47:25;10.47;;;3.80;;
18510;SDS011;9384;48.044;11.616;2022-11-02T07:49:51;10.07;;;3.70;;
18510;SDS011;9384;48.044;11.616;2022-11-02T07:52:18;5.37;;;3.30;;
18510;SDS011;9384;48.044;11.616;2022-11-02T07:54:45;5.53;;;2.93;;
18510;SDS011;9384;48.044;11.616;2022-11-02T07:57:13;7.57;;;3.10;;
18510;SDS011;9384;48.044;11.616;2022-11-02T07:59:40;6.73;;;3.43;;
18510;SDS011;9384;48.044;11.616;2022-11-02T08:02:08;7.67;;;3.03;;
18510;SDS011;9384;48.044;11.616;2022-11-02T08:04:38;5.83;;;3.10;;
18510;SDS011;9384;48.044;11.616;2022-11-02T08:07:05;4.57;;;2.97;;
18510;SDS011;9384;48.044;11.616;2022-11-02T08:09:31;9.63;;;2.70;;
18510;SDS011;9384;48.044;11.616;2022-11-02T08:11:58;3.17;;;2.50;;
18510;SDS011;9384;48.044;11.616;2022-11-02T08:14:26;5.63;;;2.30;;
18510;SDS011;9384;48.044;11.616;2022-11-02T08:16:53;7.77;;;2.23;;
18510;SDS011;9384;48.044;11.616;2022-11-02T08:19:20;3.37;;;2.23;;
18510;SDS011;9384;48.044;11.616;2022-11-02T08:21:47;6.93;;;2.70;;
18510;SDS011;9384;48.044;11.616;2022-11-02T08:24:14;3.80;;;2.63;;
18510;SDS011;9384;48.044;11.616;2022-11-02T08:26:41;2.77;;;2.23;;
18510;SDS011;9384;48.044;11.616;2022-11-02T08:29:07;2.20;;;2.10;;
18510;SDS011;9384;48.044;11.616;2022-11-02T08:31:36;4.37;;;2.30;;
18510;SDS011;9384;48.044;11.616;2022-11-02T08:34:02;5.97;;;2.23;;
18510;SDS011;9384;48.044;11.616;2022-11-02T08:36:39;2.47;;;2.20;;
18510;SDS011;9384;48.044;11.616;2022-11-02T08:39:06;3.90;;;2.30;;
18510;SDS011;9384;48.044;11.616;2022-11-02T08:41:33;3.33;;;1.97;;
18510;SDS011;9384;48.044;11.616;2022-11-02T08:43:59;2.53;;;2.33;;
18510;SDS011;9384;48.044;11.616;2022-11-02T08:46:26;4.33;;;1.80;;
18510;SDS011;9384;48.044;11.616;2022-11-02T08:48:56;2.70;;;2.00;;
18510;SDS011;9384;48.044;11.616;2022-11-02T08:51:22;3.80;;;1.90;;
18510;SDS011;9384;48.044;11.616;2022-11-02T08:53:49;3.40;;;1.93;;
18510;SDS011;9384;48.044;11.616;2022-11-02T08:56:16;2.60;;;1.83;;
18510;SDS011;9384;48.044;11.616;2022-11-02T08:58:43;7.60;;;2.20;;
18510;SDS011;9384;48.044;11.616;2022-11-02T09:01:10;5.33;;;2.07;;
18510;SDS011;9384;48.044;11.616;2022-11-02T09:03:37;3.57;;;2.13;;
18510;SDS011;9384;48.044;11.616;2022-11-02T09:06:05;3.83;;;2.30;;
18510;SDS011;9384;48.044;11.616;2022-11-02T09:08:32;5.13;;;2.63;;
18510;SDS011;9384;48.044;11.616;2022-11-02T09:10:59;2.07;;;1.90;;
18510;SDS011;9384;48.044;11.616;2022-11-02T09:13:28;4.77;;;2.60;;
18510;SDS011;9384;48.044;11.616;2022-11-02T09:15:56;1.90;;;1.70;;
18510;SDS011;9384;48.044;11.616;2022-11-02T09:18:23;3.37;;;1.50;;
18510;SDS011;9384;48.044;11.616;2022-11-02T09:20:51;4.97;;;1.80;;
18510;SDS011;9384;48.044;11.616;2022-11-02T09:23:19;2.57;;;1.40;;
18510;SDS011;9384;48.044;11.616;2022-11-02T09:25:47;2.10;;;1.77;;
18510;SDS011;9384;48.044;11.616;2022-11-02T09:28:14;7.63;;;1.90;;
18510;SDS011;9384;48.044;11.616;2022-11-02T09:30:41;2.50;;;1.60;;
18510;SDS011;9384;48.044;11.616;2022-11-02T09:33:08;1.70;;;1.60;;
18510;SDS011;9384;48.044;11.616;2022-11-02T09:35:36;4.40;;;1.87;;
18510;SDS011;9384;48.044;11.616;2022-11-02T09:38:04;1.70;;;1.37;;
18510;SDS011;9384;48.044;11.616;2022-11-02T09:40:36;4.00;;;1.83;;
18510;SDS011;9384;48.044;11.616;2022-11-02T09:43:05;3.53;;;1.70;;
18510;SDS011;9384;48.044;11.616;2022-11-02T09:45:41;3.60;;;1.80;;
18510;SDS011;9384;48.044;11.616;2022-11-02T09:48:17;4.33;;;1.53;;
18510;SDS011;9384;48.044;11.616;2022-11-02T09:50:47;2.27;;;1.87;;
18510;SDS011;9384;48.044;11.616;2022-11-02T09:53:17;5.00;;;1.87;;
18510;SDS011;9384;48.044;11.616;2022-11-02T09:55:53;5.47;;;1.93;;
18510;SDS011;9384;48.044;11.616;2022-11-02T09:58:26;3.70;;;1.50;;
18510;SDS011;9384;48.044;11.616;2022-11-02T10:01:07;5.30;;;1.70;;
18510;SDS011;9384;48.044;11.616;2022-11-02T10:03:42;2.63;;;1.40;;
18510;SDS011;9384;48.044;11.616;2022-11-02T10:06:22;5.00;;;1.43;;
18510;SDS011;9384;48.044;11.616;2022-11-02T10:08:54;3.97;;;1.60;;
18510;SDS011;9384;48.044;11.616;2022-11-02T10:11:35;5.07;;;1.37;;
18510;SDS011;9384;48.044;11.616;2022-11-02T10:14:09;6.30;;;1.70;;
18510;SDS011;9384;48.044;11.616;2022-11-02T10:16:43;2.50;;;1.20;;
18510;SDS011;9384;48.044;11.616;2022-11-02T10:19:15;3.53;;;1.50;;
18510;SDS011;9384;48.044;11.616;2022-11-02T10:21:45;4.87;;;1.23;;
18510;SDS011;9384;48.044;11.616;2022-11-02T10:24:21;8.83;;;1.37;;
18510;SDS011;9384;48.044;11.616;2022-11-02T10:26:58;1.77;;;1.30;;
18510;SDS011;9384;48.044;11.616;2022-11-02T10:29:31;2.20;;;1.53;;
18510;SDS011;9384;48.044;11.616;2022-11-02T10:32:06;10.43;;;1.60;;
18510;SDS011;9384;48.044;11.616;2022-11-02T10:34:34;7.20;;;1.50;;
18510;SDS011;9384;48.044;11.616;2022-11-02T10:37:10;2.73;;;1.30;;
18510;SDS011;9384;48.044;11.616;2022-11-02T10:39:47;3.40;;;1.83;;
18510;SDS011;9384;48.044;11.616;2022-11-02T10:42:29;2.50;;;1.43;;
18510;SDS011;9384;48.044;11.616;2022-11-02T10:45:13;3.20;;;1.27;;
18510;SDS011;9384;48.044;11.616;2022-11-02T10:48:01;4.10;;;1.47;;
18510;SDS011;9384;48.044;11.616;2022-11-02T10:50:36;4.13;;;1.40;;
18510;SDS011;9384;48.044;11.616;2022-11-02T10:53:12;3.87;;;1.63;;
18510;SDS011;9384;48.044;11.616;2022-11-02T10:55:42;4.63;;;1.30;;
18510;SDS011;9384;48.044;11.616;2022-11-02T10:58:16;4.97;;;1.47;;
18510;SDS011;9384;48.044;11.616;2022-11-02T11:00:46;3.30;;;1.30;;
18510;SDS011;9384;48.044;11.616;2022-11-02T11:03:14;2.43;;;1.20;;
18510;SDS011;9384;48.044;11.616;2022-11-02T11:05:52;4.93;;;1.43;;
18510;SDS011;9384;48.044;11.616;2022-11-02T11:11:09;2.03;;;1.37;;
18510;SDS011;9384;48.044;11.616;2022-11-02T11:13:40;5.47;;;1.87;;
18510;SDS011;9384;48.044;11.616;2022-11-02T11:16:08;3.77;;;1.60;;
18510;SDS011;9384;48.044;11.616;2022-11-02T11:18:35;3.50;;;1.60;;
18510;SDS011;9384;48.044;11.616;2022-11-02T11:21:03;5.40;;;1.77;;
18510;SDS011;9384;48.044;11.616;2022-11-02T11:23:31;4.43;;;1.30;;
18510;SDS011;9384;48.044;11.616;2022-11-02T11:25:59;3.40;;;1.63;;
18510;SDS011;9384;48.044;11.616;2022-11-02T11:28:27;4.37;;;1.70;;
18510;SDS011;9384;48.044;11.616;2022-11-02T11:31:05;5.53;;;2.00;;
18510;SDS011;9384;48.044;11.616;2022-11-02T11:33:41;2.67;;;1.73;;
18510;SDS011;9384;48.044;11.616;2022-11-02T11:36:10;3.27;;;1.87;;
18510;SDS011;9384;48.044;11.616;2022-11-02T11:38:47;5.93;;;1.60;;
18510;SDS011;9384;48.044;11.616;2022-11-02T11:41:15;1.97;;;1.13;;
18510;SDS011;9384;48.044;11.616;2022-11-02T11:43:42;3.70;;;1.63;;
18510;SDS011;9384;48.044;11.616;2022-11-02T11:46:13;6.73;;;1.30;;
18510;SDS011;9384;48.044;11.616;2022-11-02T11:48:43;6.83;;;1.20;;
18510;SDS011;9384;48.044;11.616;2022-11-02T11:51:23;2.20;;;1.63;;
18510;SDS011;9384;48.044;11.616;2022-11-02T11:54:04;7.53;;;1.43;;
18510;SDS011;9384;48.044;11.616;2022-11-02T11:56:39;3.50;;;1.60;;
18510;SDS011;9384;48.044;11.616;2022-11-02T11:59:14;8.97;;;1.80;;
18510;SDS011;9384;48.044;11.616;2022-11-02T12:01:53;6.30;;;1.23;;
18510;SDS011;9384;48.044;11.616;2022-11-02T12:04:25;4.57;;;1.57;;
18510;SDS011;9384;48.044;11.616;2022-11-02T12:07:00;1.87;;;1.60;;
18510;SDS011;9384;48.044;11.616;2022-11-02T12:09:48;3.47;;;1.23;;
18510;SDS011;9384;48.044;11.616;2022-11-02T12:12:27;2.70;;;1.40;;
18510;SDS011;9384;48.044;11.616;2022-11-02T12:15:08;6.50;;;1.57;;
18510;SDS011;9384;48.044;11.616;2022-11-02T12:17:50;2.73;;;0.80;;
18510;SDS011;9384;48.044;11.616;2022-11-02T12:20:35;5.57;;;1.07;;
18510;SDS011;9384;48.044;11.616;2022-11-02T12:23:20;4.00;;;1.10;;
18510;SDS011;9384;48.044;11.616;2022-11-02T12:26:00;2.70;;;1.30;;
18510;SDS011;9384;48.044;11.616;2022-11-02T12:28:40;4.87;;;1.10;;
18510;SDS011;9384;48.044;11.616;2022-11-02T12:31:24;5.23;;;1.43;;
18510;SDS011;9384;48.044;11.616;2022-11-02T12:34:12;3.70;;;1.63;;
18510;SDS011;9384;48.044;11.616;2022-11-02T12:36:49;1.73;;;1.17;;
18510;SDS011;9384;48.044;11.616;2022-11-02T12:39:30;4.53;;;1.00;;
18510;SDS011;9384;48.044;11.616;2022-11-02T12:42:11;5.00;;;1.70;;
18510;SDS011;9384;48.044;11.616;2022-11-02T12:44:59;2.83;;;1.10;;
18510;SDS011;9384;48.044;11.616;2022-11-02T12:47:36;3.10;;;1.33;;
18510;SDS011;9384;48.044;11.616;2022-11-02T12:50:17;1.07;;;1.00;;
18510;SDS011;9384;48.044;11.616;2022-11-02T12:52:53;1.97;;;1.10;;
18510;SDS011;9384;48.044;11.616;2022-11-02T12:55:30;4.13;;;1.47;;
18510;SDS011;9384;48.044;11.616;2022-11-02T12:58:00;1.80;;;1.57;;
18510;SDS011;9384;48.044;11.616;2022-11-02T13:00:30;3.10;;;1.37;;
18510;SDS011;9384;48.044;11.616;2022-11-02T13:03:02;6.30;;;1.30;;
18510;SDS011;9384;48.044;11.616;2022-11-02T13:05:33;4.60;;;1.17;;
18510;SDS011;9384;48.044;11.616;2022-11-02T13:08:05;3.20;;;1.27;;
18510;SDS011;9384;48.044;11.616;2022-11-02T13:10:39;1.60;;;1.13;;
18510;SDS011;9384;48.044;11.616;2022-11-02T13:13:12;2.67;;;1.20;;
18510;SDS011;9384;48.044;11.616;2022-11-02T13:15:42;4.80;;;1.27;;
18510;SDS011;9384;48.044;11.616;2022-11-02T13:18:11;5.83;;;1.50;;
18510;SDS011;9384;48.044;11.616;2022-11-02T13:20:44;3.67;;;1.00;;
18510;SDS011;9384;48.044;11.616;2022-11-02T13:23:18;2.40;;;1.00;;
18510;SDS011;9384;48.044;11.616;2022-11-02T13:25:55;1.27;;;1.10;;
18510;SDS011;9384;48.044;11.616;2022-11-02T13:28:28;1.33;;;1.07;;
18510;SDS011;9384;48.044;11.616;2022-11-02T13:31:00;5.47;;;1.23;;
18510;SDS011;9384;48.044;11.616;2022-11-02T13:33:29;2.23;;;0.93;;
18510;SDS011;9384;48.044;11.616;2022-11-02T13:36:06;1.33;;;1.20;;
18510;SDS011;9384;48.044;11.616;2022-11-02T13:38:35;4.70;;;0.90;;
18510;SDS011;9384;48.044;11.616;2022-11-02T13:41:13;1.97;;;1.50;;
18510;SDS011;9384;48.044;11.616;2022-11-02T13:43:58;5.50;;;1.57;;
18510;SDS011;9384;48.044;11.616;2022-11-02T13:46:57;1.13;;;1.07;;
18510;SDS011;9384;48.044;11.616;2022-11-02T13:49:34;3.10;;;1.23;;
18510;SDS011;9384;48.044;11.616;2022-11-02T13:52:08;2.37;;;1.23;;
18510;SDS011;9384;48.044;11.616;2022-11-02T13:54:37;5.77;;;1.30;;
18510;SDS011;9384;48.044;11.616;2022-11-02T13:57:15;3.00;;;1.00;;
18510;SDS011;9384;48.044;11.616;2022-11-02T13:59:49;4.40;;;1.07;;
18510;SDS011;9384;48.044;11.616;2022-11-02T14:02:16;4.23;;;1.13;;
18510;SDS011;9384;48.044;11.616;2022-11-02T14:04:45;4.77;;;1.03;;
18510;SDS011;9384;48.044;11.616;2022-11-02T14:07:19;4.10;;;1.23;;
18510;SDS011;9384;48.044;11.616;2022-11-02T14:09:50;4.17;;;1.47;;
18510;SDS011;9384;48.044;11.616;2022-11-02T14:12:26;3.37;;;1.37;;
18510;SDS011;9384;48.044;11.616;2022-11-02T14:18:08;6.43;;;1.30;;
18510;SDS011;9384;48.044;11.616;2022-11-02T14:20:38;1.70;;;1.10;;
18510;SDS011;9384;48.044;11.616;2022-11-02T14:26:03;5.10;;;1.33;;
18510;SDS011;9384;48.044;11.616;2022-11-02T14:28:50;2.87;;;1.40;;
18510;SDS011;9384;48.044;11.616;2022-11-02T14:31:22;4.83;;;1.47;;
18510;SDS011;9384;48.044;11.616;2022-11-02T14:34:13;3.73;;;1.40;;
18510;SDS011;9384;48.044;11.616;2022-11-02T14:36:58;4.83;;;1.50;;
18510;SDS011;9384;48.044;11.616;2022-11-02T14:39:39;4.27;;;1.33;;
18510;SDS011;9384;48.044;11.616;2022-11-02T14:42:19;2.87;;;1.10;;
18510;SDS011;9384;48.044;11.616;2022-11-02T14:45:04;2.57;;;1.37;;
18510;SDS011;9384;48.044;11.616;2022-11-02T14:47:51;4.60;;;1.40;;
18510;SDS011;9384;48.044;11.616;2022-11-02T14:50:23;2.43;;;1.60;;
18510;SDS011;9384;48.044;11.616;2022-11-02T14:53:04;1.10;;;1.10;;
18510;SDS011;9384;48.044;11.616;2022-11-02T14:55:34;2.23;;;1.30;;
18510;SDS011;9384;48.044;11.616;2022-11-02T14:58:04;2.10;;;1.23;;
18510;SDS011;9384;48.044;11.616;2022-11-02T15:00:35;2.03;;;1.33;;
18510;SDS011;9384;48.044;11.616;2022-11-02T15:03:04;3.10;;;1.30;;
18510;SDS011;9384;48.044;11.616;2022-11-02T15:05:38;2.80;;;1.27;;
18510;SDS011;9384;48.044;11.616;2022-11-02T15:08:08;5.23;;;1.47;;
18510;SDS011;9384;48.044;11.616;2022-11-02T15:10:48;2.90;;;1.10;;
18510;SDS011;9384;48.044;11.616;2022-11-02T15:13:22;4.37;;;1.53;;
18510;SDS011;9384;48.044;11.616;2022-11-02T15:16:14;4.80;;;1.70;;
18510;SDS011;9384;48.044;11.616;2022-11-02T15:18:46;5.17;;;2.07;;
18510;SDS011;9384;48.044;11.616;2022-11-02T15:21:25;2.73;;;1.50;;